sensor_id;sensor_type;location;lat;lon;timestamp;temperature;humidity
19862;DHT22;10093;48.148;8.542;2022-10-31T00:02:12;6.80;99.90
19862;DHT22;10093;48.148;8.542;2022-10-31T00:04:38;6.80;99.90
19862;DHT22;10093;48.148;8.542;2022-10-31T00:07:09;6.80;99.90
19862;DHT22;10093;48.148;8.542;2022-10-31T00:09:35;6.60;99.90
19862;DHT22;10093;48.148;8.542;2022-10-31T00:12:00;6.50;99.90
19862;DHT22;10093;48.148;8.542;2022-10-31T00:14:26;6.50;99.90
19862;DHT22;10093;48.148;8.542;2022-10-31T00:16:52;6.70;99.90
19862;DHT22;10093;48.148;8.542;2022-10-31T00:19:17;6.60;99.90
19862;DHT22;10093;48.148;8.542;2022-10-31T00:21:43;6.40;99.90
19862;DHT22;10093;48.148;8.542;2022-10-31T00:24:08;6.50;99.90
19862;DHT22;10093;48.148;8.542;2022-10-31T00:26:34;6.40;99.90
19862;DHT22;10093;48.148;8.542;2022-10-31T00:29:00;6.50;99.90
19862;DHT22;10093;48.148;8.542;2022-10-31T00:31:27;6.60;99.90
19862;DHT22;10093;48.148;8.542;2022-10-31T00:33:53;6.60;99.90
19862;DHT22;10093;48.148;8.542;2022-10-31T00:36:19;6.60;99.90
19862;DHT22;10093;48.148;8.542;2022-10-31T00:38:46;6.60;99.90
19862;DHT22;10093;48.148;8.542;2022-10-31T00:41:13;6.50;99.90
19862;DHT22;10093;48.148;8.542;2022-10-31T00:43:39;6.60;99.90
19862;DHT22;10093;48.148;8.542;2022-10-31T00:46:04;6.50;99.90
19862;DHT22;10093;48.148;8.542;2022-10-31T00:48:30;6.30;99.90
19862;DHT22;10093;48.148;8.542;2022-10-31T00:50:56;6.10;99.90
19862;DHT22;10093;48.148;8.542;2022-10-31T00:53:22;6.20;99.90
19862;DHT22;10093;48.148;8.542;2022-10-31T00:55:48;6.30;99.90
19862;DHT22;10093;48.148;8.542;2022-10-31T00:58:13;6.30;99.90
19862;DHT22;10093;48.148;8.542;2022-10-31T01:00:39;6.30;99.90
19862;DHT22;10093;48.148;8.542;2022-10-31T01:03:05;6.20;99.90
19862;DHT22;10093;48.148;8.542;2022-10-31T01:05:31;6.20;99.90
19862;DHT22;10093;48.148;8.542;2022-10-31T01:07:56;6.20;99.90
19862;DHT22;10093;48.148;8.542;2022-10-31T01:10:22;6.20;99.90
19862;DHT22;10093;48.148;8.542;2022-10-31T01:12:49;6.20;99.90
19862;DHT22;10093;48.148;8.542;2022-10-31T01:15:17;6.10;99.90
19862;DHT22;10093;48.148;8.542;2022-10-31T01:17:43;6.20;99.90
19862;DHT22;10093;48.148;8.542;2022-10-31T01:20:10;6.10;99.90
19862;DHT22;10093;48.148;8.542;2022-10-31T01:22:36;5.90;99.90
19862;DHT22;10093;48.148;8.542;2022-10-31T01:25:02;6.00;99.90
19862;DHT22;10093;48.148;8.542;2022-10-31T01:27:28;6.10;99.90
19862;DHT22;10093;48.148;8.542;2022-10-31T01:29:53;6.00;99.90
19862;DHT22;10093;48.148;8.542;2022-10-31T01:32:19;5.90;99.90
19862;DHT22;10093;48.148;8.542;2022-10-31T01:34:45;5.70;99.90
19862;DHT22;10093;48.148;8.542;2022-10-31T01:37:10;5.80;99.90
19862;DHT22;10093;48.148;8.542;2022-10-31T01:39:36;5.90;99.90
19862;DHT22;10093;48.148;8.542;2022-10-31T01:42:02;5.90;99.90
19862;DHT22;10093;48.148;8.542;2022-10-31T01:46:59;5.90;99.90
19862;DHT22;10093;48.148;8.542;2022-10-31T01:49:46;6.00;99.90
19862;DHT22;10093;48.148;8.542;2022-10-31T01:52:35;6.00;99.90
19862;DHT22;10093;48.148;8.542;2022-10-31T01:55:25;5.90;99.90
19862;DHT22;10093;48.148;8.542;2022-10-31T01:57:53;5.90;99.90
19862;DHT22;10093;48.148;8.542;2022-10-31T02:00:21;5.70;99.90
19862;DHT22;10093;48.148;8.542;2022-10-31T02:02:48;5.70;99.90
19862;DHT22;10093;48.148;8.542;2022-10-31T02:05:20;5.70;99.90
19862;DHT22;10093;48.148;8.542;2022-10-31T02:08:29;5.60;99.90
19862;DHT22;10093;48.148;8.542;2022-10-31T02:10:54;5.60;99.90
19862;DHT22;10093;48.148;8.542;2022-10-31T02:13:21;5.50;99.90
19862;DHT22;10093;48.148;8.542;2022-10-31T02:15:53;5.50;99.90
19862;DHT22;10093;48.148;8.542;2022-10-31T02:18:20;5.40;99.90
19862;DHT22;10093;48.148;8.542;2022-10-31T02:28:52;5.00;99.90
19862;DHT22;10093;48.148;8.542;2022-10-31T02:31:50;5.20;99.90
19862;DHT22;10093;48.148;8.542;2022-10-31T02:37:14;5.40;99.90
19862;DHT22;10093;48.148;8.542;2022-10-31T02:39:56;5.40;99.90
19862;DHT22;10093;48.148;8.542;2022-10-31T02:45:17;5.20;99.90
19862;DHT22;10093;48.148;8.542;2022-10-31T02:47:45;5.10;99.90
19862;DHT22;10093;48.148;8.542;2022-10-31T02:50:35;5.20;99.90
19862;DHT22;10093;48.148;8.542;2022-10-31T02:53:03;5.20;99.90
19862;DHT22;10093;48.148;8.542;2022-10-31T02:58:05;5.20;99.90
19862;DHT22;10093;48.148;8.542;2022-10-31T03:00:52;5.00;99.90
19862;DHT22;10093;48.148;8.542;2022-10-31T03:03:51;4.90;99.90
19862;DHT22;10093;48.148;8.542;2022-10-31T03:06:35;4.70;99.90
19862;DHT22;10093;48.148;8.542;2022-10-31T03:14:51;5.00;99.90
19862;DHT22;10093;48.148;8.542;2022-10-31T03:17:31;4.80;99.90
19862;DHT22;10093;48.148;8.542;2022-10-31T03:20:00;4.80;99.90
19862;DHT22;10093;48.148;8.542;2022-10-31T03:22:29;4.90;99.90
19862;DHT22;10093;48.148;8.542;2022-10-31T03:24:57;5.10;99.90
19862;DHT22;10093;48.148;8.542;2022-10-31T03:27:27;5.10;99.90
19862;DHT22;10093;48.148;8.542;2022-10-31T03:29:57;4.90;99.90
19862;DHT22;10093;48.148;8.542;2022-10-31T03:32:28;4.80;99.90
19862;DHT22;10093;48.148;8.542;2022-10-31T03:34:57;4.80;99.90
19862;DHT22;10093;48.148;8.542;2022-10-31T03:37:26;4.90;99.90
19862;DHT22;10093;48.148;8.542;2022-10-31T03:39:54;4.90;99.90
19862;DHT22;10093;48.148;8.542;2022-10-31T03:42:25;4.70;99.90
19862;DHT22;10093;48.148;8.542;2022-10-31T03:44:59;4.60;99.90
19862;DHT22;10093;48.148;8.542;2022-10-31T03:47:26;4.50;99.90
19862;DHT22;10093;48.148;8.542;2022-10-31T03:49:52;4.40;99.90
19862;DHT22;10093;48.148;8.542;2022-10-31T03:55:26;4.80;99.90
19862;DHT22;10093;48.148;8.542;2022-10-31T03:58:03;4.80;99.90
19862;DHT22;10093;48.148;8.542;2022-10-31T04:00:29;4.90;99.90
19862;DHT22;10093;48.148;8.542;2022-10-31T04:03:03;4.70;99.90
19862;DHT22;10093;48.148;8.542;2022-10-31T04:05:31;4.60;99.90
19862;DHT22;10093;48.148;8.542;2022-10-31T04:07:58;4.90;99.90
19862;DHT22;10093;48.148;8.542;2022-10-31T04:10:26;5.00;99.90
19862;DHT22;10093;48.148;8.542;2022-10-31T04:12:57;5.00;99.90
19862;DHT22;10093;48.148;8.542;2022-10-31T04:15:23;4.90;99.90
19862;DHT22;10093;48.148;8.542;2022-10-31T04:17:53;4.80;99.90
19862;DHT22;10093;48.148;8.542;2022-10-31T04:20:30;4.80;99.90
19862;DHT22;10093;48.148;8.542;2022-10-31T04:22:55;4.80;99.90
19862;DHT22;10093;48.148;8.542;2022-10-31T04:25:21;4.90;99.90
19862;DHT22;10093;48.148;8.542;2022-10-31T04:27:47;4.90;99.90
19862;DHT22;10093;48.148;8.542;2022-10-31T04:30:12;4.80;99.90
19862;DHT22;10093;48.148;8.542;2022-10-31T04:32:38;4.80;99.90
19862;DHT22;10093;48.148;8.542;2022-10-31T04:35:04;4.50;99.90
19862;DHT22;10093;48.148;8.542;2022-10-31T04:37:29;4.30;99.90
19862;DHT22;10093;48.148;8.542;2022-10-31T04:39:55;4.20;99.90
19862;DHT22;10093;48.148;8.542;2022-10-31T04:42:20;4.00;99.90
19862;DHT22;10093;48.148;8.542;2022-10-31T04:44:46;4.00;99.90
19862;DHT22;10093;48.148;8.542;2022-10-31T04:47:12;4.00;99.90
19862;DHT22;10093;48.148;8.542;2022-10-31T04:49:37;3.90;99.90
19862;DHT22;10093;48.148;8.542;2022-10-31T04:52:03;3.80;99.90
19862;DHT22;10093;48.148;8.542;2022-10-31T04:54:29;3.80;99.90
19862;DHT22;10093;48.148;8.542;2022-10-31T04:56:54;3.80;99.90
19862;DHT22;10093;48.148;8.542;2022-10-31T04:59:20;3.70;99.90
19862;DHT22;10093;48.148;8.542;2022-10-31T05:01:45;3.80;99.90
19862;DHT22;10093;48.148;8.542;2022-10-31T05:04:11;4.00;99.90
19862;DHT22;10093;48.148;8.542;2022-10-31T05:06:36;4.30;99.90
19862;DHT22;10093;48.148;8.542;2022-10-31T05:09:02;4.40;99.90
19862;DHT22;10093;48.148;8.542;2022-10-31T05:11:28;4.60;99.90
19862;DHT22;10093;48.148;8.542;2022-10-31T05:13:53;4.50;99.90
19862;DHT22;10093;48.148;8.542;2022-10-31T05:16:19;4.60;99.90
19862;DHT22;10093;48.148;8.542;2022-10-31T05:18:44;4.60;99.90
19862;DHT22;10093;48.148;8.542;2022-10-31T05:21:10;4.80;99.90
19862;DHT22;10093;48.148;8.542;2022-10-31T05:23:35;4.70;99.90
19862;DHT22;10093;48.148;8.542;2022-10-31T05:26:01;4.70;99.90
19862;DHT22;10093;48.148;8.542;2022-10-31T05:28:27;4.70;99.90
19862;DHT22;10093;48.148;8.542;2022-10-31T05:30:52;4.70;99.90
19862;DHT22;10093;48.148;8.542;2022-10-31T05:33:18;4.70;99.90
19862;DHT22;10093;48.148;8.542;2022-10-31T05:35:43;4.60;99.90
19862;DHT22;10093;48.148;8.542;2022-10-31T05:38:09;4.40;99.90
19862;DHT22;10093;48.148;8.542;2022-10-31T05:40:35;4.30;99.90
19862;DHT22;10093;48.148;8.542;2022-10-31T05:43:00;4.40;99.90
19862;DHT22;10093;48.148;8.542;2022-10-31T05:45:26;4.20;99.90
19862;DHT22;10093;48.148;8.542;2022-10-31T05:47:55;4.10;99.90
19862;DHT22;10093;48.148;8.542;2022-10-31T05:50:21;4.20;99.90
19862;DHT22;10093;48.148;8.542;2022-10-31T05:52:53;4.40;99.90
19862;DHT22;10093;48.148;8.542;2022-10-31T05:55:19;4.40;99.90
19862;DHT22;10093;48.148;8.542;2022-10-31T05:57:44;4.40;99.90
19862;DHT22;10093;48.148;8.542;2022-10-31T06:00:10;4.50;99.90
19862;DHT22;10093;48.148;8.542;2022-10-31T06:02:36;4.60;99.90
19862;DHT22;10093;48.148;8.542;2022-10-31T06:05:02;4.60;99.90
19862;DHT22;10093;48.148;8.542;2022-10-31T06:07:32;4.30;99.90
19862;DHT22;10093;48.148;8.542;2022-10-31T06:09:58;4.00;99.90
19862;DHT22;10093;48.148;8.542;2022-10-31T06:12:23;3.90;99.90
19862;DHT22;10093;48.148;8.542;2022-10-31T06:14:49;3.90;99.90
19862;DHT22;10093;48.148;8.542;2022-10-31T06:17:15;4.20;99.90
19862;DHT22;10093;48.148;8.542;2022-10-31T06:19:40;4.50;99.90
19862;DHT22;10093;48.148;8.542;2022-10-31T06:22:06;4.60;99.90
19862;DHT22;10093;48.148;8.542;2022-10-31T06:24:31;4.80;99.90
19862;DHT22;10093;48.148;8.542;2022-10-31T06:26:57;4.90;99.90
19862;DHT22;10093;48.148;8.542;2022-10-31T06:29:23;4.90;99.90
19862;DHT22;10093;48.148;8.542;2022-10-31T06:31:51;5.30;99.90
19862;DHT22;10093;48.148;8.542;2022-10-31T06:34:16;5.80;99.90
19862;DHT22;10093;48.148;8.542;2022-10-31T06:36:42;6.40;99.90
19862;DHT22;10093;48.148;8.542;2022-10-31T06:39:07;6.80;99.90
19862;DHT22;10093;48.148;8.542;2022-10-31T06:41:33;7.00;99.90
19862;DHT22;10093;48.148;8.542;2022-10-31T06:43:59;7.50;99.90
19862;DHT22;10093;48.148;8.542;2022-10-31T06:46:24;8.00;99.90
19862;DHT22;10093;48.148;8.542;2022-10-31T06:48:50;8.20;99.90
19862;DHT22;10093;48.148;8.542;2022-10-31T06:51:15;7.70;99.90
19862;DHT22;10093;48.148;8.542;2022-10-31T06:53:41;7.60;99.90
19862;DHT22;10093;48.148;8.542;2022-10-31T06:56:07;7.50;99.90
19862;DHT22;10093;48.148;8.542;2022-10-31T06:58:32;7.70;99.90
19862;DHT22;10093;48.148;8.542;2022-10-31T07:01:01;8.40;99.90
19862;DHT22;10093;48.148;8.542;2022-10-31T07:03:27;9.30;99.90
19862;DHT22;10093;48.148;8.542;2022-10-31T07:05:55;10.10;99.90
19862;DHT22;10093;48.148;8.542;2022-10-31T07:08:20;10.70;99.90
19862;DHT22;10093;48.148;8.542;2022-10-31T07:10:51;11.20;99.90
19862;DHT22;10093;48.148;8.542;2022-10-31T07:13:17;11.20;99.90
19862;DHT22;10093;48.148;8.542;2022-10-31T07:15:43;10.90;99.90
19862;DHT22;10093;48.148;8.542;2022-10-31T07:18:10;10.70;99.90
19862;DHT22;10093;48.148;8.542;2022-10-31T07:20:36;10.20;99.90
19862;DHT22;10093;48.148;8.542;2022-10-31T07:23:02;10.80;99.90
19862;DHT22;10093;48.148;8.542;2022-10-31T07:25:28;11.40;99.90
19862;DHT22;10093;48.148;8.542;2022-10-31T07:27:54;12.10;99.90
19862;DHT22;10093;48.148;8.542;2022-10-31T07:30:20;13.00;99.90
19862;DHT22;10093;48.148;8.542;2022-10-31T07:32:50;13.50;99.90
19862;DHT22;10093;48.148;8.542;2022-10-31T07:35:19;13.50;99.90
19862;DHT22;10093;48.148;8.542;2022-10-31T07:37:44;13.60;99.90
19862;DHT22;10093;48.148;8.542;2022-10-31T07:40:11;14.00;99.90
19862;DHT22;10093;48.148;8.542;2022-10-31T07:42:44;14.40;99.90
19862;DHT22;10093;48.148;8.542;2022-10-31T07:45:13;14.50;99.90
19862;DHT22;10093;48.148;8.542;2022-10-31T07:47:42;15.10;99.90
19862;DHT22;10093;48.148;8.542;2022-10-31T07:50:10;15.70;99.90
19862;DHT22;10093;48.148;8.542;2022-10-31T07:52:36;16.20;99.90
19862;DHT22;10093;48.148;8.542;2022-10-31T07:55:02;16.20;99.90
19862;DHT22;10093;48.148;8.542;2022-10-31T07:57:28;16.30;99.90
19862;DHT22;10093;48.148;8.542;2022-10-31T07:59:53;17.00;99.90
19862;DHT22;10093;48.148;8.542;2022-10-31T08:02:19;17.50;99.90
19862;DHT22;10093;48.148;8.542;2022-10-31T08:04:45;17.90;99.90
19862;DHT22;10093;48.148;8.542;2022-10-31T08:07:11;18.30;99.90
19862;DHT22;10093;48.148;8.542;2022-10-31T08:09:36;18.40;99.90
19862;DHT22;10093;48.148;8.542;2022-10-31T08:12:02;18.50;99.90
19862;DHT22;10093;48.148;8.542;2022-10-31T08:14:27;18.20;99.90
19862;DHT22;10093;48.148;8.542;2022-10-31T08:16:53;17.30;99.90
19862;DHT22;10093;48.148;8.542;2022-10-31T08:19:19;16.70;99.90
19862;DHT22;10093;48.148;8.542;2022-10-31T08:21:45;16.20;99.90
19862;DHT22;10093;48.148;8.542;2022-10-31T08:24:11;16.50;99.90
19862;DHT22;10093;48.148;8.542;2022-10-31T08:26:36;16.40;99.90
19862;DHT22;10093;48.148;8.542;2022-10-31T08:29:02;17.00;99.90
19862;DHT22;10093;48.148;8.542;2022-10-31T08:31:28;17.60;99.90
19862;DHT22;10093;48.148;8.542;2022-10-31T08:33:54;18.10;99.90
19862;DHT22;10093;48.148;8.542;2022-10-31T08:36:20;18.10;99.90
19862;DHT22;10093;48.148;8.542;2022-10-31T08:38:47;18.80;99.90
19862;DHT22;10093;48.148;8.542;2022-10-31T08:41:12;19.40;99.90
19862;DHT22;10093;48.148;8.542;2022-10-31T08:43:38;17.60;99.90
19862;DHT22;10093;48.148;8.542;2022-10-31T08:46:04;17.30;99.90
19862;DHT22;10093;48.148;8.542;2022-10-31T08:48:29;17.00;99.90
19862;DHT22;10093;48.148;8.542;2022-10-31T08:50:59;18.10;99.90
19862;DHT22;10093;48.148;8.542;2022-10-31T08:53:25;18.40;99.90
19862;DHT22;10093;48.148;8.542;2022-10-31T08:55:54;18.50;99.90
19862;DHT22;10093;48.148;8.542;2022-10-31T08:58:20;18.60;99.90
19862;DHT22;10093;48.148;8.542;2022-10-31T09:00:48;17.70;99.90
19862;DHT22;10093;48.148;8.542;2022-10-31T09:03:25;16.50;99.90
19862;DHT22;10093;48.148;8.542;2022-10-31T09:05:55;17.60;99.90
19862;DHT22;10093;48.148;8.542;2022-10-31T09:08:21;18.20;99.90
19862;DHT22;10093;48.148;8.542;2022-10-31T09:10:47;18.60;99.90
19862;DHT22;10093;48.148;8.542;2022-10-31T09:13:17;18.80;99.90
19862;DHT22;10093;48.148;8.542;2022-10-31T09:15:45;19.10;99.90
19862;DHT22;10093;48.148;8.542;2022-10-31T09:18:13;19.30;99.90
19862;DHT22;10093;48.148;8.542;2022-10-31T09:20:40;19.20;99.90
19862;DHT22;10093;48.148;8.542;2022-10-31T09:23:14;18.30;99.90
19862;DHT22;10093;48.148;8.542;2022-10-31T09:25:41;18.70;99.90
19862;DHT22;10093;48.148;8.542;2022-10-31T09:28:09;18.90;99.90
19862;DHT22;10093;48.148;8.542;2022-10-31T09:30:35;18.90;99.90
19862;DHT22;10093;48.148;8.542;2022-10-31T09:33:11;19.30;99.90
19862;DHT22;10093;48.148;8.542;2022-10-31T09:35:37;19.70;99.90
19862;DHT22;10093;48.148;8.542;2022-10-31T09:38:05;19.10;99.90
19862;DHT22;10093;48.148;8.542;2022-10-31T09:40:35;19.50;99.90
19862;DHT22;10093;48.148;8.542;2022-10-31T09:43:23;20.60;99.90
19862;DHT22;10093;48.148;8.542;2022-10-31T09:49:13;20.50;99.90
19862;DHT22;10093;48.148;8.542;2022-10-31T09:51:45;21.10;99.90
19862;DHT22;10093;48.148;8.542;2022-10-31T09:56:58;22.50;99.90
19862;DHT22;10093;48.148;8.542;2022-10-31T09:59:35;24.40;99.90
19862;DHT22;10093;48.148;8.542;2022-10-31T10:08:07;22.50;99.90
19862;DHT22;10093;48.148;8.542;2022-10-31T10:10:58;21.60;99.90
19862;DHT22;10093;48.148;8.542;2022-10-31T10:33:00;21.90;99.90
19862;DHT22;10093;48.148;8.542;2022-10-31T10:38:07;22.10;99.90
19862;DHT22;10093;48.148;8.542;2022-10-31T10:40:34;22.40;99.90
19862;DHT22;10093;48.148;8.542;2022-10-31T10:43:07;21.90;99.90
19862;DHT22;10093;48.148;8.542;2022-10-31T10:45:59;21.70;99.90
19862;DHT22;10093;48.148;8.542;2022-10-31T10:48:56;22.30;99.90
19862;DHT22;10093;48.148;8.542;2022-10-31T10:54:45;22.20;99.90
19862;DHT22;10093;48.148;8.542;2022-10-31T11:00:19;22.60;99.90
19862;DHT22;10093;48.148;8.542;2022-10-31T11:02:45;23.10;99.90
19862;DHT22;10093;48.148;8.542;2022-10-31T11:07:48;23.20;99.90
19862;DHT22;10093;48.148;8.542;2022-10-31T11:10:15;23.00;99.90
19862;DHT22;10093;48.148;8.542;2022-10-31T11:12:43;22.90;99.90
19862;DHT22;10093;48.148;8.542;2022-10-31T11:15:22;22.60;99.90
19862;DHT22;10093;48.148;8.542;2022-10-31T11:17:50;22.50;99.90
19862;DHT22;10093;48.148;8.542;2022-10-31T11:22:44;21.60;99.90
19862;DHT22;10093;48.148;8.542;2022-10-31T11:28:09;21.20;99.90
19862;DHT22;10093;48.148;8.542;2022-10-31T11:30:31;21.00;99.90
19862;DHT22;10093;48.148;8.542;2022-10-31T11:33:00;20.50;99.90
19862;DHT22;10093;48.148;8.542;2022-10-31T11:35:26;20.50;99.90
19862;DHT22;10093;48.148;8.542;2022-10-31T11:37:54;20.30;99.90
19862;DHT22;10093;48.148;8.542;2022-10-31T11:40:25;20.20;99.90
19862;DHT22;10093;48.148;8.542;2022-10-31T11:42:54;20.20;99.90
19862;DHT22;10093;48.148;8.542;2022-10-31T11:47:50;19.60;99.90
19862;DHT22;10093;48.148;8.542;2022-10-31T11:50:39;19.40;99.90
19862;DHT22;10093;48.148;8.542;2022-10-31T11:53:26;19.20;99.90
19862;DHT22;10093;48.148;8.542;2022-10-31T11:56:19;18.80;99.90
19862;DHT22;10093;48.148;8.542;2022-10-31T11:59:02;18.70;99.90
19862;DHT22;10093;48.148;8.542;2022-10-31T12:01:30;19.10;99.90
19862;DHT22;10093;48.148;8.542;2022-10-31T12:04:07;19.60;99.90
19862;DHT22;10093;48.148;8.542;2022-10-31T12:06:39;20.00;99.90
19862;DHT22;10093;48.148;8.542;2022-10-31T12:09:28;21.00;99.90
19862;DHT22;10093;48.148;8.542;2022-10-31T12:15:04;22.10;99.90
19862;DHT22;10093;48.148;8.542;2022-10-31T12:18:02;22.80;99.90
19862;DHT22;10093;48.148;8.542;2022-10-31T12:36:37;20.20;99.90
19862;DHT22;10093;48.148;8.542;2022-10-31T12:45:10;20.40;99.90
19862;DHT22;10093;48.148;8.542;2022-10-31T12:53:44;26.40;99.90
19862;DHT22;10093;48.148;8.542;2022-10-31T12:58:52;29.20;99.90
19862;DHT22;10093;48.148;8.542;2022-10-31T13:01:32;30.30;99.90
19862;DHT22;10093;48.148;8.542;2022-10-31T13:04:51;30.10;99.90
19862;DHT22;10093;48.148;8.542;2022-10-31T13:06:55;28.50;99.90
19862;DHT22;10093;48.148;8.542;2022-10-31T13:09:27;28.40;99.90
19862;DHT22;10093;48.148;8.542;2022-10-31T13:12:01;28.30;99.90
19862;DHT22;10093;48.148;8.542;2022-10-31T13:14:40;27.00;99.90
19862;DHT22;10093;48.148;8.542;2022-10-31T13:17:20;24.30;99.90
19862;DHT22;10093;48.148;8.542;2022-10-31T13:19:48;24.00;99.90
19862;DHT22;10093;48.148;8.542;2022-10-31T13:22:24;23.60;99.90
19862;DHT22;10093;48.148;8.542;2022-10-31T13:25:03;25.50;99.90
19862;DHT22;10093;48.148;8.542;2022-10-31T13:32:58;28.40;99.90
19862;DHT22;10093;48.148;8.542;2022-10-31T13:41:05;28.60;99.90
19862;DHT22;10093;48.148;8.542;2022-10-31T13:46:35;29.90;99.90
19862;DHT22;10093;48.148;8.542;2022-10-31T13:49:02;30.60;99.90
19862;DHT22;10093;48.148;8.542;2022-10-31T13:51:30;30.50;99.90
19862;DHT22;10093;48.148;8.542;2022-10-31T13:54:01;29.70;99.90
19862;DHT22;10093;48.148;8.542;2022-10-31T13:56:33;29.90;99.90
19862;DHT22;10093;48.148;8.542;2022-10-31T13:59:25;30.20;99.90
19862;DHT22;10093;48.148;8.542;2022-10-31T14:02:00;31.40;99.90
19862;DHT22;10093;48.148;8.542;2022-10-31T14:05:18;31.70;99.90
19862;DHT22;10093;48.148;8.542;2022-10-31T14:07:47;31.80;99.90
19862;DHT22;10093;48.148;8.542;2022-10-31T14:10:26;31.90;99.90
19862;DHT22;10093;48.148;8.542;2022-10-31T14:13:18;30.70;99.90
19862;DHT22;10093;48.148;8.542;2022-10-31T14:16:00;27.80;99.90
19862;DHT22;10093;48.148;8.542;2022-10-31T14:18:35;25.60;99.90
19862;DHT22;10093;48.148;8.542;2022-10-31T14:21:58;24.10;99.90
19862;DHT22;10093;48.148;8.542;2022-10-31T14:23:58;23.20;99.90
19862;DHT22;10093;48.148;8.542;2022-10-31T14:28:55;22.40;99.90
19862;DHT22;10093;48.148;8.542;2022-10-31T14:31:42;22.70;99.90
19862;DHT22;10093;48.148;8.542;2022-10-31T14:39:46;25.20;99.90
19862;DHT22;10093;48.148;8.542;2022-10-31T14:48:00;26.60;99.90
19862;DHT22;10093;48.148;8.542;2022-10-31T14:53:41;26.30;99.90
19862;DHT22;10093;48.148;8.542;2022-10-31T14:56:10;25.70;99.90
19862;DHT22;10093;48.148;8.542;2022-10-31T14:58:45;25.20;99.90
19862;DHT22;10093;48.148;8.542;2022-10-31T15:01:30;24.50;99.90
19862;DHT22;10093;48.148;8.542;2022-10-31T15:06:44;24.40;99.90
19862;DHT22;10093;48.148;8.542;2022-10-31T15:09:35;24.40;99.90
19862;DHT22;10093;48.148;8.542;2022-10-31T15:12:30;24.30;99.90
19862;DHT22;10093;48.148;8.542;2022-10-31T15:14:56;23.60;99.90
19862;DHT22;10093;48.148;8.542;2022-10-31T15:17:25;22.80;99.90
19862;DHT22;10093;48.148;8.542;2022-10-31T15:19:51;21.90;99.90
19862;DHT22;10093;48.148;8.542;2022-10-31T15:22:19;21.20;99.90
19862;DHT22;10093;48.148;8.542;2022-10-31T15:24:47;20.60;99.90
19862;DHT22;10093;48.148;8.542;2022-10-31T15:27:16;20.00;99.90
19862;DHT22;10093;48.148;8.542;2022-10-31T15:29:55;19.30;99.90
19862;DHT22;10093;48.148;8.542;2022-10-31T15:32:26;18.70;99.90
19862;DHT22;10093;48.148;8.542;2022-10-31T15:34:53;18.00;99.90
19862;DHT22;10093;48.148;8.542;2022-10-31T15:37:21;17.50;99.90
19862;DHT22;10093;48.148;8.542;2022-10-31T15:39:48;17.10;99.90
19862;DHT22;10093;48.148;8.542;2022-10-31T15:42:43;16.70;99.90
19862;DHT22;10093;48.148;8.542;2022-10-31T15:47:35;15.90;99.90
19862;DHT22;10093;48.148;8.542;2022-10-31T15:50:03;15.60;99.90
19862;DHT22;10093;48.148;8.542;2022-10-31T15:55:15;15.20;99.90
19862;DHT22;10093;48.148;8.542;2022-10-31T15:57:50;15.50;99.90
19862;DHT22;10093;48.148;8.542;2022-10-31T16:00:31;15.30;99.90
19862;DHT22;10093;48.148;8.542;2022-10-31T16:05:39;14.70;99.90
19862;DHT22;10093;48.148;8.542;2022-10-31T16:10:47;14.20;99.90
19862;DHT22;10093;48.148;8.542;2022-10-31T16:13:13;14.00;99.90
19862;DHT22;10093;48.148;8.542;2022-10-31T16:15:52;13.80;99.90
19862;DHT22;10093;48.148;8.542;2022-10-31T16:18:18;13.90;99.90
19862;DHT22;10093;48.148;8.542;2022-10-31T16:20:52;13.70;99.90
19862;DHT22;10093;48.148;8.542;2022-10-31T16:23:19;13.50;99.90
19862;DHT22;10093;48.148;8.542;2022-10-31T16:25:46;13.60;99.90
19862;DHT22;10093;48.148;8.542;2022-10-31T16:28:22;13.90;99.90
19862;DHT22;10093;48.148;8.542;2022-10-31T16:30:51;13.80;99.90
19862;DHT22;10093;48.148;8.542;2022-10-31T16:33:27;13.50;99.90
19862;DHT22;10093;48.148;8.542;2022-10-31T16:35:55;13.50;99.90
19862;DHT22;10093;48.148;8.542;2022-10-31T16:38:21;13.50;99.90
19862;DHT22;10093;48.148;8.542;2022-10-31T16:40:48;13.20;99.90
19862;DHT22;10093;48.148;8.542;2022-10-31T16:43:15;13.10;99.90
19862;DHT22;10093;48.148;8.542;2022-10-31T16:45:49;12.90;99.90
19862;DHT22;10093;48.148;8.542;2022-10-31T16:48:18;13.00;99.90
19862;DHT22;10093;48.148;8.542;2022-10-31T16:50:45;13.20;99.90
19862;DHT22;10093;48.148;8.542;2022-10-31T16:53:12;12.90;99.90
19862;DHT22;10093;48.148;8.542;2022-10-31T16:55:46;12.80;99.90
19862;DHT22;10093;48.148;8.542;2022-10-31T16:58:20;12.70;99.90
19862;DHT22;10093;48.148;8.542;2022-10-31T17:00:46;13.10;99.90
19862;DHT22;10093;48.148;8.542;2022-10-31T17:03:12;12.90;99.90
19862;DHT22;10093;48.148;8.542;2022-10-31T17:05:38;12.50;99.90
19862;DHT22;10093;48.148;8.542;2022-10-31T17:08:04;12.60;99.90
19862;DHT22;10093;48.148;8.542;2022-10-31T17:10:30;12.50;99.90
19862;DHT22;10093;48.148;8.542;2022-10-31T17:12:55;12.30;99.90
19862;DHT22;10093;48.148;8.542;2022-10-31T17:15:27;12.30;99.90
19862;DHT22;10093;48.148;8.542;2022-10-31T17:17:53;12.30;99.90
19862;DHT22;10093;48.148;8.542;2022-10-31T17:20:28;12.30;99.90
19862;DHT22;10093;48.148;8.542;2022-10-31T17:22:55;12.10;99.90
19862;DHT22;10093;48.148;8.542;2022-10-31T17:25:28;11.90;99.90
19862;DHT22;10093;48.148;8.542;2022-10-31T17:27:55;11.80;99.90
19862;DHT22;10093;48.148;8.542;2022-10-31T17:30:21;12.00;99.90
19862;DHT22;10093;48.148;8.542;2022-10-31T17:32:48;12.00;99.90
19862;DHT22;10093;48.148;8.542;2022-10-31T17:35:15;12.00;99.90
19862;DHT22;10093;48.148;8.542;2022-10-31T17:37:42;11.90;99.90
19862;DHT22;10093;48.148;8.542;2022-10-31T17:40:09;11.70;99.90
19862;DHT22;10093;48.148;8.542;2022-10-31T17:42:34;11.70;99.90
19862;DHT22;10093;48.148;8.542;2022-10-31T17:45:00;11.60;99.90
19862;DHT22;10093;48.148;8.542;2022-10-31T17:47:26;11.70;99.90
19862;DHT22;10093;48.148;8.542;2022-10-31T17:49:52;11.60;99.90
19862;DHT22;10093;48.148;8.542;2022-10-31T17:52:18;11.50;99.90
19862;DHT22;10093;48.148;8.542;2022-10-31T17:54:44;11.30;99.90
19862;DHT22;10093;48.148;8.542;2022-10-31T17:57:10;11.30;99.90
19862;DHT22;10093;48.148;8.542;2022-10-31T17:59:35;11.40;99.90
19862;DHT22;10093;48.148;8.542;2022-10-31T18:02:01;11.20;99.90
19862;DHT22;10093;48.148;8.542;2022-10-31T18:04:35;11.40;99.90
19862;DHT22;10093;48.148;8.542;2022-10-31T18:07:01;11.20;99.90
19862;DHT22;10093;48.148;8.542;2022-10-31T18:09:27;11.20;99.90
19862;DHT22;10093;48.148;8.542;2022-10-31T18:11:52;11.10;99.90
19862;DHT22;10093;48.148;8.542;2022-10-31T18:14:18;10.90;99.90
19862;DHT22;10093;48.148;8.542;2022-10-31T18:16:44;11.00;99.90
19862;DHT22;10093;48.148;8.542;2022-10-31T18:19:12;10.90;99.90
19862;DHT22;10093;48.148;8.542;2022-10-31T18:21:38;10.90;99.90
19862;DHT22;10093;48.148;8.542;2022-10-31T18:24:05;11.00;99.90
19862;DHT22;10093;48.148;8.542;2022-10-31T18:26:30;10.90;99.90
19862;DHT22;10093;48.148;8.542;2022-10-31T18:28:56;10.80;99.90
19862;DHT22;10093;48.148;8.542;2022-10-31T18:31:22;10.70;99.90